Plain Dealing, Louisiana
Current Conditions -  °F | °C
As of 4:53 PM on Thursday 27 Nov 2014 (Local Time) from KDTN Reporting Station
Clear Clear  
Wind Chill: 54°   Ceiling: Unl
Heat Index: 54°   Visibility: 10mi
Dew Point: 25°   Wind: 3mph
Humidity: 33%   Direction: 10°N
Pressure: 30.45"   Gusts: NA
Location:  32.91°N, 93.7°W
Report Text: KDTN 272253Z 01003KT 10SM CLR 12/M04 A3045 RMK AO2 SLP310 T01221039
Loading
Personal Weather Stations






























Interactive Weather Map New forecast layout! Learn more

10-Day Weather Forecast

Advertisements
Track Severe Weather on mobile